Flight Track Log - Related Links

Times and Time Zones

All times are in EDT time to prevent confusion due to time zone crossing. See the FLG3780 flight status page for this flight to view local times or setup timezone preferences in your user account.

Time Position Orientation Groundspeed Altitude Reporting Facility
EDT Latitude Longitude Course Direction KTS MPH feet Rate Location/Type
Wed 09:21:47 42.7256 -73.8053 283° West 156 180 1,300  Level Boston Center
Wed 09:22:05 42.7111 -73.8133 202° Southwest 155 178 1,900 1,768 Climbing Boston Center
Wed 09:23:39 42.7450 -73.9158 294° West 234 269 4,600 1,831 Climbing Boston Center
Wed 09:24:00 42.8135 -74.1941 281° West  Level FlightAware
Wed 09:24:39 42.7564 -74.0122 279° West 243 280 6,600  Level Boston Center
Wed 09:25:00 42.8328 -74.3298 281° West  Level FlightAware
Wed 09:25:39 42.7611 -74.1200 273° West 270 311 9,500  Level Boston Center
Wed 09:26:00 42.8553 -74.4647 283° West  Level FlightAware
Wed 09:26:39 42.7675 -74.2444 274° West 301 346 11,700  Level Boston Center
Wed 09:27:00 42.8881 -74.5936 283° West  Level FlightAware
Wed 09:27:39 42.7739 -74.3606 274° West 329 379 13,000  Level Boston Center
Wed 09:28:39 42.7817 -74.5136 274° West 365 420 14,500 1,545 Climbing Boston Center
Wed 09:29:51 42.7908 -74.6894 274° West 387 445 16,400 1,455 Climbing Boston Center
Wed 09:30:51 42.7986 -74.8228 275° West 387 445 17,700 1,250 Climbing Boston Center
Wed 09:31:51 42.8036 -74.9728 273° West 393 452 18,900 1,100 Climbing Boston Center
Wed 09:32:51 42.8125 -75.1261 275° West 399 459 19,900 1,050 Climbing Boston Center
Wed 09:33:51 42.8214 -75.2822 274° West 410 472 21,000 1,050 Climbing Boston Center
Wed 09:34:51 42.8297 -75.4383 274° West 410 472 22,000 900 Climbing Boston Center
Wed 09:35:51 42.8358 -75.6003 273° West 422 486 22,800 750 Climbing Boston Center
Wed 09:36:51 42.8439 -75.7619 274° West 428 493 23,500 750 Climbing Boston Center
Wed 09:37:51 42.8514 -75.9267 274° West 433 498 24,300 727 Climbing Boston Center
Wed 09:39:03 42.8586 -76.0942 273° West 444 511 25,100 676 Climbing Boston Center
Wed 09:41:33 42.8731 -76.5400 273° West 447 514 26,800 657 Climbing Cleveland Center
Wed 09:42:33 42.8794 -76.7294 273° West 452 520 27,400 550 Climbing Cleveland Center
Wed 09:43:33 42.8831 -76.9050 272° West 459 528 27,900 300 Climbing Cleveland Center
Wed 09:44:33 42.8781 -77.0783 268° West 459 528 28,000 50 Climbing Cleveland Center
Wed 09:45:33 42.8731 -77.2572 268° West 464 534 28,000  Level Cleveland Center
Wed 09:46:33 42.8694 -77.4331 268° West 464 534 28,000 -50 Level Cleveland Center
Wed 09:47:33 42.8617 -77.6089 267° West 464 534 27,900  Descending Cleveland Center
Wed 09:48:33 42.8578 -77.7878 268° West 464 534 28,000 50 Climbing Cleveland Center
Wed 09:49:33 42.8497 -77.9692 267° West 477 549 28,000  Level Cleveland Center
Wed 09:50:33 42.8411 -78.1594 267° West 477 549 28,000  Level Cleveland Center
Wed 09:51:33 42.8344 -78.3381 267° West 482 555 28,000  Level Cleveland Center
Wed 09:52:33 42.8294 -78.5167 268° West 482 555 28,000  Level Cleveland Center
Wed 09:53:33 42.8239 -78.6725 267° West 470 541 28,000  Level Cleveland Center
Wed 09:54:33 42.8142 -78.8539 266° West 480 552 28,000  Level Cleveland Center
Wed 09:55:33 42.8064 -79.0494 267° West 480 552 28,000  Level Cleveland Center
Wed 09:56:33 42.7961 -79.2250 265° West 479 551 28,000  Level Cleveland Center
Wed 09:57:33 42.7878 -79.4033 266° West 479 551 28,000  Level Cleveland Center
Wed 09:58:33 42.7808 -79.5650 267° West 479 551 28,000 -150 Level Cleveland Center
Wed 09:59:33 42.7719 -79.7461 266° West 479 551 27,700 -850 Descending Cleveland Center
Wed 10:00:33 42.7586 -79.9525 265° West 486 559 26,300 -850 Descending Cleveland Center
Wed 10:01:33 42.7489 -80.1167 265° West 491 565 26,000 -150 Descending Cleveland Center
Wed 10:02:33 42.7392 -80.3061 266° West 501 577 26,000  Level Cleveland Center
Wed 10:03:33 42.7292 -80.4928 266° West 501 577 26,000  Level Cleveland Center
Wed 10:04:33 42.7186 -80.6819 266° West 501 577 26,000 -500 Level Cleveland Center
Wed 10:05:33 42.7078 -80.8828 266° West 495 570 25,000 -1,050 Descending Cleveland Center
Wed 10:06:33 42.6864 -81.0606 261° West 485 558 23,900 -1,300 Descending Cleveland Center
Wed 10:07:33 42.6689 -81.2269 262° West 462 532 22,400 -1,400 Descending Cleveland Center
Wed 10:08:33 42.6511 -81.3906 262° West 457 526 21,100 -1,300 Descending Cleveland Center
Wed 10:09:33 42.6311 -81.5511 260° West 442 509 19,800 -1,300 Descending Cleveland Center
Wed 10:10:33 42.6131 -81.7061 261° West 436 502 18,500 -1,200 Descending Cleveland Center
Wed 10:11:33 42.5928 -81.8581 260° West 420 483 17,400 -1,200 Descending Cleveland Center
Wed 10:12:33 42.5742 -82.0128 261° West 420 483 16,100 -1,200 Descending Cleveland Center
Wed 10:13:33 42.5558 -82.1589 260° West 420 483 15,000 -1,169 Descending Cleveland Center
Wed 10:13:50 42.5531 -82.2067 266° West 405 466 14,600 -1,200 Descending Cleveland Center
Wed 10:14:33 42.5369 -82.3078 258° West 410 472 13,800 -1,068 Descending Cleveland Center
Wed 10:15:03 42.5294 -82.3836 262° West 385 443 13,300 -1,000 Descending Cleveland Center
Wed 10:15:33 42.5200 -82.4481 259° West 398 458 12,800 -1,075 Descending Cleveland Center
Wed 10:16:10 42.5103 -82.5322 261° West 371 427 12,100 -800 Descending Cleveland Center
Wed 10:16:33 42.4950 -82.5797 246° West 385 443 12,000 -98 Descending Cleveland Center
Wed 10:17:11 42.4683 -82.6633 247° West 358 412 12,000  Level Cleveland Center
Wed 10:17:33 42.4511 -82.7022 239° Southwest 368 423 12,000  Level Cleveland Center
Wed 10:18:06 42.4289 -82.7689 246° West 365 420 12,000  Level Cleveland Center
Wed 10:18:33 42.4069 -82.8244 242° Southwest 368 423 12,000  Level Cleveland Center
Wed 10:19:13 42.3783 -82.9133 246° West 367 422 12,000  Level Cleveland Center
Wed 10:19:33 42.3631 -82.9464 238° Southwest 368 423 12,000  Level Cleveland Center
Wed 10:20:20 42.3294 -83.0464 246° West 368 423 12,000  Level Cleveland Center
Wed 10:21:15 42.2964 -83.1406 245° Southwest 275 316 12,000  Level Cleveland Center
Wed 10:21:33 42.2853 -83.1653 239° Southwest 337 388 12,000 -98 Level Cleveland Center
Wed 10:22:16 42.2406 -83.2028 212° Southwest 249 287 11,900 -200 Descending Cleveland Center
Wed 10:22:33 42.2364 -83.2025 177° South 279 321 11,800 -1,309 Descending Cleveland Center
Wed 10:23:11 42.1856 -83.2397 208° Southwest 254 292 10,700 -1,600 Descending Cleveland Center
Wed 10:23:33 42.1644 -83.2472 195° South 260 299 10,200 -1,881 Descending Cleveland Center
Wed 10:24:18 42.1117 -83.2786 204° Southwest 255 293 8,600 -2,094 Descending Cleveland Center
Wed 10:25:19 42.0439 -83.3206 205° Southwest 255 293 6,500 -2,016 Descending Cleveland Center
Wed 10:26:26 42.0336 -83.4067 261° West 237 273 4,300 -1,970 Descending Cleveland Center

Login

Don't have an account? Register now (free) for customized features, flight alerts, and more!